createdAt,value
2023-09-03T00:00:19.514Z,21.45
2023-09-03T00:02:46.181Z,21.41
2023-09-03T00:05:12.899Z,21.35
2023-09-03T00:07:42.431Z,21.03
2023-09-03T00:10:11.677Z,20.60
2023-09-03T00:12:40.892Z,20.63
2023-09-03T00:15:09.123Z,20.58
2023-09-03T00:17:36.184Z,20.67
2023-09-03T00:20:05.950Z,20.59
2023-09-03T00:22:35.502Z,20.59
2023-09-03T00:25:04.535Z,20.68
2023-09-03T00:27:33.209Z,20.78
2023-09-03T00:29:59.934Z,20.86
2023-09-03T00:32:27.049Z,20.96
2023-09-03T00:34:53.726Z,20.96
2023-09-03T00:37:20.309Z,20.75
2023-09-03T00:39:46.922Z,20.58
2023-09-03T00:42:13.535Z,20.41
2023-09-03T00:44:42.390Z,20.30
2023-09-03T00:47:13.691Z,20.41
2023-09-03T00:49:41.491Z,20.55
2023-09-03T00:52:10.424Z,20.64
2023-09-03T00:54:39.658Z,20.55
2023-09-03T00:57:06.324Z,20.55
2023-09-03T00:59:33.914Z,20.55
2023-09-03T01:02:00.493Z,20.44
2023-09-03T01:04:29.827Z,20.28
2023-09-03T01:06:58.982Z,20.22
2023-09-03T01:09:25.832Z,20.11
2023-09-03T01:12:16.841Z,19.95
2023-09-03T01:14:46.996Z,20.02
2023-09-03T01:17:32.874Z,20.11
2023-09-03T01:20:08.046Z,20.24
2023-09-03T01:22:36.812Z,20.34
2023-09-03T01:25:10.445Z,20.43
2023-09-03T01:27:38.702Z,20.46
2023-09-03T01:30:05.920Z,20.53
2023-09-03T01:32:32.729Z,20.54
2023-09-03T01:35:04.192Z,20.54
2023-09-03T01:37:30.888Z,20.42
2023-09-03T01:40:02.767Z,20.41
2023-09-03T01:42:31.542Z,20.38
2023-09-03T01:45:01.572Z,20.28
2023-09-03T01:47:31.336Z,20.32
2023-09-03T01:50:27.413Z,20.35
2023-09-03T01:53:00.338Z,20.43
2023-09-03T01:55:27.038Z,20.45
2023-09-03T01:57:56.668Z,20.47
2023-09-03T02:00:24.023Z,20.50
2023-09-03T02:02:52.587Z,20.55
2023-09-03T02:05:19.416Z,20.59
2023-09-03T02:07:48.505Z,20.63
2023-09-03T02:10:15.284Z,20.61
2023-09-03T02:12:41.972Z,20.59
2023-09-03T02:15:11.139Z,20.57
2023-09-03T02:17:37.781Z,20.56
2023-09-03T02:20:05.040Z,20.54
2023-09-03T02:22:31.850Z,20.52
2023-09-03T02:24:58.483Z,20.52
2023-09-03T02:27:25.368Z,20.49
2023-09-03T02:30:00.127Z,20.50
2023-09-03T02:32:26.901Z,20.45
2023-09-03T02:34:55.928Z,20.45
2023-09-03T02:37:24.009Z,20.50
2023-09-03T02:39:50.995Z,20.54
2023-09-03T02:42:20.229Z,20.55
2023-09-03T02:44:46.936Z,20.54
2023-09-03T02:47:14.259Z,20.48
2023-09-03T02:49:41.900Z,20.44
2023-09-03T02:52:11.349Z,20.43
2023-09-03T02:54:38.015Z,20.43
2023-09-03T02:57:04.805Z,20.38
2023-09-03T02:59:34.050Z,20.32
2023-09-03T03:02:01.352Z,20.31
2023-09-03T03:04:28.167Z,20.30
2023-09-03T03:06:54.788Z,20.28
2023-09-03T03:09:22.169Z,20.23
2023-09-03T03:11:51.494Z,20.20
2023-09-03T03:14:21.008Z,20.13
2023-09-03T03:16:48.150Z,20.08
2023-09-03T03:19:20.366Z,20.03
2023-09-03T03:21:47.156Z,20.00
2023-09-03T03:24:14.762Z,19.92
2023-09-03T03:26:41.879Z,19.79
2023-09-03T03:29:14.421Z,19.68
2023-09-03T03:31:47.511Z,19.52
2023-09-03T03:34:14.468Z,19.25
2023-09-03T03:36:45.500Z,19.21
2023-09-03T03:39:14.849Z,19.36
2023-09-03T03:41:42.722Z,19.43
2023-09-03T03:44:14.521Z,19.49
2023-09-03T03:46:43.875Z,19.60
2023-09-03T03:49:12.978Z,19.74
2023-09-03T03:51:42.124Z,19.76
2023-09-03T03:54:08.760Z,19.72
2023-09-03T03:56:36.119Z,19.58
2023-09-03T03:59:02.925Z,19.57
2023-09-03T04:01:30.337Z,19.57
2023-09-03T04:03:57.235Z,19.58
2023-09-03T04:06:24.038Z,19.68
2023-09-03T04:08:53.591Z,19.75
2023-09-03T04:11:20.346Z,19.72
2023-09-03T04:13:49.485Z,19.79
2023-09-03T04:16:23.670Z,19.82
2023-09-03T04:18:52.026Z,19.72
2023-09-03T04:21:21.742Z,19.83
2023-09-03T04:23:51.193Z,19.90
2023-09-03T04:26:18.248Z,19.96
2023-09-03T04:28:56.127Z,20.02
2023-09-03T04:31:22.892Z,20.10
2023-09-03T04:33:52.357Z,20.18
2023-09-03T04:36:19.558Z,20.26
2023-09-03T04:38:46.246Z,20.28
2023-09-03T04:41:15.994Z,20.29
2023-09-03T04:44:08.857Z,20.25
2023-09-03T04:46:44.942Z,20.29
2023-09-03T04:49:11.801Z,20.36
2023-09-03T04:51:38.663Z,20.43
2023-09-03T04:54:10.440Z,20.44
2023-09-03T04:56:39.595Z,20.43
2023-09-03T04:59:06.407Z,20.47
2023-09-03T05:01:36.485Z,20.54
2023-09-03T05:04:06.485Z,20.55
2023-09-03T05:06:33.452Z,20.56
2023-09-03T05:09:00.509Z,20.62
2023-09-03T05:11:30.373Z,20.85
2023-09-03T05:14:00.990Z,21.05
2023-09-03T05:16:28.910Z,21.13
2023-09-03T05:19:05.865Z,21.10
2023-09-03T05:21:33.974Z,21.13
2023-09-03T05:24:01.100Z,21.16
2023-09-03T05:26:27.863Z,21.12
2023-09-03T05:28:57.046Z,21.15
2023-09-03T05:31:23.754Z,21.17
2023-09-03T05:33:50.800Z,21.18
2023-09-03T05:36:17.436Z,21.07
2023-09-03T05:38:44.422Z,20.97
2023-09-03T05:41:11.337Z,20.94
2023-09-03T05:43:38.760Z,20.95
2023-09-03T05:46:05.565Z,20.94
2023-09-03T05:48:33.424Z,20.97
2023-09-03T05:51:06.740Z,21.07
2023-09-03T05:53:36.282Z,21.14
2023-09-03T05:56:12.779Z,21.07
2023-09-03T05:58:43.440Z,21.16
2023-09-03T06:01:10.819Z,21.29
2023-09-03T06:03:42.080Z,21.38
2023-09-03T06:06:13.372Z,21.57
2023-09-03T06:08:43.577Z,21.70
2023-09-03T06:11:10.195Z,21.69
2023-09-03T06:13:39.453Z,21.54
2023-09-03T06:16:08.425Z,21.53
2023-09-03T06:18:35.343Z,21.61
2023-09-03T06:21:02.015Z,21.63
2023-09-03T06:23:28.694Z,21.73
2023-09-03T06:25:57.701Z,21.83
2023-09-03T06:28:24.790Z,22.14
2023-09-03T06:30:53.447Z,22.21
2023-09-03T06:33:20.385Z,22.36
2023-09-03T06:35:47.256Z,22.52
2023-09-03T06:38:16.338Z,22.50
2023-09-03T06:40:42.939Z,22.65
2023-09-03T06:43:09.554Z,22.67
2023-09-03T06:45:38.785Z,22.65
2023-09-03T06:48:05.636Z,22.82
2023-09-03T06:50:32.318Z,23.06
2023-09-03T06:53:01.155Z,22.91
2023-09-03T06:55:27.862Z,22.79
2023-09-03T06:57:54.636Z,22.93
2023-09-03T07:00:29.761Z,23.09
2023-09-03T07:02:56.411Z,23.20
2023-09-03T07:05:23.226Z,22.95
2023-09-03T07:07:49.846Z,22.77
2023-09-03T07:10:16.592Z,22.77
2023-09-03T07:12:46.097Z,23.02
2023-09-03T07:15:15.282Z,23.21
2023-09-03T07:17:41.974Z,23.29
2023-09-03T07:20:11.503Z,23.42
2023-09-03T07:22:38.286Z,23.57
2023-09-03T07:25:05.119Z,23.70
2023-09-03T07:27:39.610Z,23.75
2023-09-03T07:30:07.552Z,23.88
2023-09-03T07:32:38.156Z,23.94
2023-09-03T07:35:06.120Z,23.95
2023-09-03T07:37:33.266Z,23.88
2023-09-03T07:40:00.077Z,23.98
2023-09-03T07:42:26.733Z,24.18
2023-09-03T07:44:54.178Z,24.21
2023-09-03T07:47:21.138Z,24.15
2023-09-03T07:49:47.813Z,24.11
2023-09-03T07:52:15.239Z,24.16
2023-09-03T07:54:41.941Z,24.27
2023-09-03T07:57:11.605Z,24.29
2023-09-03T07:59:39.801Z,24.34
2023-09-03T08:02:06.776Z,24.06
2023-09-03T08:04:33.830Z,23.74
2023-09-03T08:07:00.429Z,23.58
2023-09-03T08:09:29.943Z,23.42
2023-09-03T08:12:01.373Z,23.43
2023-09-03T08:14:27.994Z,23.65
2023-09-03T08:16:57.178Z,23.94
2023-09-03T08:19:23.943Z,24.19
2023-09-03T08:21:53.050Z,24.12
2023-09-03T08:24:24.443Z,23.82
2023-09-03T08:26:51.128Z,23.57
2023-09-03T08:29:19.933Z,23.28
2023-09-03T08:31:46.652Z,23.21
2023-09-03T08:34:13.320Z,23.38
2023-09-03T08:36:40.050Z,23.74
2023-09-03T08:39:13.876Z,23.69
2023-09-03T08:41:41.112Z,23.85
2023-09-03T08:44:10.481Z,23.97
2023-09-03T08:46:39.981Z,23.95
2023-09-03T08:49:08.896Z,23.85
2023-09-03T08:51:35.507Z,23.98
2023-09-03T08:54:02.126Z,23.83
2023-09-03T08:56:29.588Z,23.83
2023-09-03T08:58:56.219Z,24.04
2023-09-03T09:01:25.198Z,24.44
2023-09-03T09:03:53.216Z,24.54
2023-09-03T09:06:20.180Z,24.60
2023-09-03T09:08:46.856Z,24.64
2023-09-03T09:11:17.374Z,24.81
2023-09-03T09:13:47.648Z,25.01
2023-09-03T09:16:14.294Z,25.23
2023-09-03T09:18:43.340Z,25.66
2023-09-03T09:21:10.201Z,25.93
2023-09-03T09:23:39.467Z,25.98
2023-09-03T09:26:24.553Z,26.02
2023-09-03T09:29:01.304Z,25.95
2023-09-03T09:31:31.618Z,25.85
2023-09-03T09:34:16.372Z,25.49
2023-09-03T09:36:53.350Z,25.14
2023-09-03T09:39:19.995Z,24.96
2023-09-03T09:41:46.992Z,24.85
2023-09-03T09:44:13.622Z,24.95
2023-09-03T09:46:42.980Z,25.02
2023-09-03T09:49:11.876Z,24.91
2023-09-03T09:51:38.570Z,24.96
2023-09-03T09:54:07.532Z,25.00
2023-09-03T09:56:37.865Z,25.13
2023-09-03T09:59:04.582Z,25.10
2023-09-03T10:01:47.818Z,25.10
2023-09-03T10:04:14.884Z,24.57
2023-09-03T10:06:41.687Z,24.70
2023-09-03T10:09:11.630Z,24.89
2023-09-03T10:11:40.982Z,24.88
2023-09-03T10:14:08.525Z,24.60
2023-09-03T10:16:40.053Z,24.43
2023-09-03T10:19:13.988Z,24.60
2023-09-03T10:21:52.487Z,24.74
2023-09-03T10:24:20.929Z,24.65
2023-09-03T10:26:49.558Z,24.63
2023-09-03T10:29:20.686Z,24.70
2023-09-03T10:31:52.892Z,24.77
2023-09-03T10:34:19.557Z,24.88
2023-09-03T10:37:05.977Z,25.09
2023-09-03T10:39:32.754Z,24.78
2023-09-03T10:42:18.321Z,24.84
2023-09-03T10:44:53.929Z,24.81
2023-09-03T10:47:20.989Z,24.86
2023-09-03T10:49:48.367Z,25.05
2023-09-03T10:52:31.845Z,25.14
2023-09-03T10:55:10.970Z,24.87
2023-09-03T10:57:40.560Z,24.64
2023-09-03T11:00:11.071Z,24.46
2023-09-03T11:02:38.167Z,24.14
2023-09-03T11:05:17.958Z,23.81
2023-09-03T11:07:48.133Z,23.35
2023-09-03T11:10:26.740Z,23.07
2023-09-03T11:12:53.657Z,23.10
2023-09-03T11:15:20.550Z,23.15
2023-09-03T11:17:50.814Z,23.26
2023-09-03T11:20:47.905Z,23.33
2023-09-03T11:23:19.820Z,23.50
2023-09-03T11:25:46.640Z,23.65
2023-09-03T11:28:13.574Z,23.89
2023-09-03T11:30:41.180Z,24.04
2023-09-03T11:33:10.330Z,24.39
2023-09-03T11:35:44.656Z,24.77
2023-09-03T11:38:11.789Z,24.84
2023-09-03T11:40:39.904Z,24.74
2023-09-03T11:43:10.919Z,24.75
2023-09-03T11:45:37.761Z,24.98
2023-09-03T11:48:10.233Z,25.00
2023-09-03T11:50:39.606Z,25.33
2023-09-03T11:53:06.333Z,25.36
2023-09-03T11:55:34.423Z,25.47
2023-09-03T11:58:01.831Z,25.91
2023-09-03T12:00:28.723Z,26.19
2023-09-03T12:02:55.413Z,26.23
2023-09-03T12:05:22.049Z,26.03
2023-09-03T12:07:48.729Z,26.10
2023-09-03T12:10:19.885Z,26.02
2023-09-03T12:12:47.153Z,26.03
2023-09-03T12:15:22.916Z,26.10
2023-09-03T12:17:49.887Z,25.74
2023-09-03T12:20:34.447Z,25.79
2023-09-03T12:23:10.737Z,26.00
2023-09-03T12:25:37.545Z,25.67
2023-09-03T12:28:06.886Z,25.25
2023-09-03T12:30:52.127Z,24.92
2023-09-03T12:33:18.857Z,24.46
2023-09-03T12:35:45.815Z,24.24
2023-09-03T12:38:17.814Z,24.06
2023-09-03T12:40:44.427Z,23.79
2023-09-03T12:43:11.054Z,23.71
2023-09-03T12:45:40.256Z,23.70
2023-09-03T12:48:11.748Z,23.81
2023-09-03T12:50:40.562Z,24.01
2023-09-03T12:53:07.198Z,24.10
2023-09-03T12:55:33.833Z,24.45
2023-09-03T12:58:00.495Z,24.63
2023-09-03T13:00:29.503Z,24.61
2023-09-03T13:02:56.188Z,24.59
2023-09-03T13:05:22.979Z,24.64
2023-09-03T13:07:49.696Z,24.48
2023-09-03T13:10:18.712Z,24.37
2023-09-03T13:12:45.311Z,24.36
2023-09-03T13:15:12.232Z,24.22
2023-09-03T13:17:41.433Z,24.18
2023-09-03T13:20:08.418Z,24.07
2023-09-03T13:22:37.200Z,23.87
2023-09-03T13:25:06.497Z,23.87
2023-09-03T13:27:33.212Z,23.93
2023-09-03T13:29:59.791Z,23.94
2023-09-03T13:32:26.581Z,24.07
2023-09-03T13:34:55.588Z,24.15
2023-09-03T13:37:22.234Z,24.28
2023-09-03T13:39:49.046Z,25.31
2023-09-03T13:42:15.700Z,25.71
2023-09-03T13:44:42.404Z,26.60
2023-09-03T13:47:13.945Z,27.52
2023-09-03T13:49:45.198Z,28.00
2023-09-03T13:52:16.746Z,27.68
2023-09-03T13:54:49.000Z,27.33
2023-09-03T13:57:15.654Z,27.45
2023-09-03T13:59:43.123Z,27.43
2023-09-03T14:02:09.887Z,27.77
2023-09-03T14:04:38.907Z,28.48
2023-09-03T14:07:05.604Z,29.78
2023-09-03T14:09:32.309Z,31.11
2023-09-03T14:11:58.895Z,31.90
2023-09-03T14:14:26.027Z,32.62
2023-09-03T14:16:52.662Z,33.07
2023-09-03T14:19:23.766Z,33.79
2023-09-03T14:21:50.748Z,33.31
2023-09-03T14:24:19.845Z,34.49
2023-09-03T14:26:49.033Z,35.18
2023-09-03T14:29:17.595Z,34.96
2023-09-03T14:31:51.940Z,34.23
2023-09-03T14:34:21.041Z,34.90
2023-09-03T14:36:47.733Z,35.41
2023-09-03T14:39:14.639Z,35.92
2023-09-03T14:41:41.378Z,36.42
2023-09-03T14:44:08.093Z,36.80
2023-09-03T14:46:35.138Z,36.79
2023-09-03T14:49:02.412Z,37.21
2023-09-03T14:51:31.566Z,37.30
2023-09-03T14:53:58.282Z,36.96
2023-09-03T14:56:25.068Z,37.65
2023-09-03T14:58:51.806Z,38.33
2023-09-03T15:01:20.280Z,38.66
2023-09-03T15:03:51.636Z,38.25
2023-09-03T15:06:21.260Z,37.07
2023-09-03T15:08:47.929Z,36.43
2023-09-03T15:11:15.664Z,36.00
2023-09-03T15:13:53.864Z,35.66
2023-09-03T15:16:21.049Z,35.57
2023-09-03T15:18:47.692Z,34.47
2023-09-03T15:21:14.436Z,33.38
2023-09-03T15:23:41.171Z,32.76
2023-09-03T15:26:10.551Z,32.44
2023-09-03T15:28:37.568Z,32.03
2023-09-03T15:31:04.347Z,31.46
2023-09-03T15:33:31.106Z,30.85
2023-09-03T15:35:57.708Z,30.66
2023-09-03T15:38:24.714Z,30.58
2023-09-03T15:40:51.463Z,29.89
2023-09-03T15:43:20.119Z,29.33
2023-09-03T15:45:49.657Z,29.07
2023-09-03T15:48:16.360Z,28.96
2023-09-03T15:50:43.289Z,28.77
2023-09-03T15:53:12.491Z,28.71
2023-09-03T15:55:39.100Z,28.68
2023-09-03T15:58:05.727Z,28.60
2023-09-03T16:00:34.084Z,28.54
2023-09-03T16:03:00.864Z,28.19
2023-09-03T16:05:27.695Z,27.80
2023-09-03T16:07:59.503Z,27.52
2023-09-03T16:10:26.291Z,27.14
2023-09-03T16:12:58.348Z,26.96
2023-09-03T16:15:25.941Z,26.47
2023-09-03T16:17:52.773Z,26.28
2023-09-03T16:20:19.516Z,25.91
2023-09-03T16:22:46.228Z,25.75
2023-09-03T16:25:12.907Z,25.58
2023-09-03T16:27:39.668Z,25.50
2023-09-03T16:30:06.682Z,25.43
2023-09-03T16:32:34.064Z,25.41
2023-09-03T16:35:00.857Z,25.33
2023-09-03T16:37:27.560Z,25.24
2023-09-03T16:39:54.200Z,25.13
2023-09-03T16:42:23.423Z,25.10
2023-09-03T16:44:57.055Z,25.04
2023-09-03T16:47:26.068Z,24.91
2023-09-03T16:49:53.688Z,24.73
2023-09-03T16:52:20.724Z,24.73
2023-09-03T16:54:50.225Z,24.59
2023-09-03T16:57:16.918Z,24.42
2023-09-03T16:59:43.708Z,24.23
2023-09-03T17:02:13.866Z,24.19
2023-09-03T17:04:42.015Z,24.08
2023-09-03T17:07:12.027Z,23.99
2023-09-03T17:09:39.450Z,23.86
2023-09-03T17:12:08.735Z,23.79
2023-09-03T17:14:35.505Z,23.67
2023-09-03T17:17:06.774Z,23.66
2023-09-03T17:19:36.433Z,23.56
2023-09-03T17:22:03.668Z,23.43
2023-09-03T17:24:30.642Z,23.36
2023-09-03T17:27:00.296Z,23.39
2023-09-03T17:29:30.353Z,23.41
2023-09-03T17:31:57.797Z,23.47
2023-09-03T17:34:24.896Z,23.45
2023-09-03T17:36:51.611Z,23.42
2023-09-03T17:39:18.365Z,23.48
2023-09-03T17:41:45.076Z,23.47
2023-09-03T17:44:11.780Z,23.43
2023-09-03T17:46:38.782Z,23.37
2023-09-03T17:49:05.480Z,23.37
2023-09-03T17:51:32.200Z,23.35
2023-09-03T17:53:59.096Z,23.34
2023-09-03T17:56:25.907Z,23.36
2023-09-03T17:58:52.574Z,23.36
2023-09-03T18:01:19.614Z,23.31
2023-09-03T18:03:46.481Z,23.32
2023-09-03T18:06:13.696Z,23.33
2023-09-03T18:08:41.187Z,23.35
2023-09-03T18:11:11.359Z,23.37
2023-09-03T18:13:38.338Z,23.36
2023-09-03T18:16:07.541Z,23.29
2023-09-03T18:18:34.293Z,23.18
2023-09-03T18:21:03.756Z,23.08
2023-09-03T18:23:32.805Z,23.02
2023-09-03T18:25:59.631Z,23.02
2023-09-03T18:28:31.250Z,23.04
2023-09-03T18:30:58.427Z,23.01
2023-09-03T18:33:25.937Z,22.99
2023-09-03T18:35:53.898Z,22.94
2023-09-03T18:38:25.885Z,22.82
2023-09-03T18:40:52.805Z,22.77
2023-09-03T18:43:19.465Z,22.70
2023-09-03T18:45:46.321Z,22.69
2023-09-03T18:48:13.815Z,22.65
2023-09-03T18:50:42.863Z,22.66
2023-09-03T18:53:09.575Z,22.59
2023-09-03T18:55:39.543Z,22.48
2023-09-03T18:58:08.740Z,22.35
2023-09-03T19:00:38.537Z,22.33
2023-09-03T19:03:08.377Z,22.22
2023-09-03T19:05:50.244Z,22.17
2023-09-03T19:08:22.397Z,22.17
2023-09-03T19:11:09.569Z,22.18
2023-09-03T19:13:38.790Z,22.14
2023-09-03T19:16:05.586Z,22.09
2023-09-03T19:18:32.935Z,22.06
2023-09-03T19:20:59.674Z,22.03
2023-09-03T19:23:28.886Z,22.01
2023-09-03T19:25:56.005Z,21.96
2023-09-03T19:28:22.961Z,21.88
2023-09-03T19:30:51.390Z,21.84
2023-09-03T19:33:21.874Z,21.83
2023-09-03T19:35:58.057Z,21.83
2023-09-03T19:38:33.544Z,21.79
2023-09-03T19:41:01.424Z,21.75
2023-09-03T19:43:32.994Z,21.67
2023-09-03T19:46:01.060Z,21.67
2023-09-03T19:48:31.718Z,21.67
2023-09-03T19:51:01.343Z,21.70
2023-09-03T19:53:29.994Z,21.72
2023-09-03T19:55:56.669Z,21.70
2023-09-03T19:58:23.544Z,21.63
2023-09-03T20:00:54.460Z,21.58
2023-09-03T20:03:21.328Z,21.57
2023-09-03T20:05:56.292Z,21.57
2023-09-03T20:08:25.876Z,21.57
2023-09-03T20:10:55.732Z,21.56
2023-09-03T20:13:22.460Z,21.57
2023-09-03T20:15:58.301Z,21.56
2023-09-03T20:18:25.667Z,21.49
2023-09-03T20:20:55.851Z,21.37
2023-09-03T20:23:22.936Z,21.04
2023-09-03T20:25:56.810Z,20.82
2023-09-03T20:28:39.510Z,20.84
2023-09-03T20:31:12.631Z,20.88
2023-09-03T20:33:41.802Z,20.95
2023-09-03T20:36:09.184Z,20.94
2023-09-03T20:38:38.942Z,20.96
2023-09-03T20:41:08.184Z,20.94
2023-09-03T20:43:37.824Z,20.94
2023-09-03T20:46:04.807Z,20.84
2023-09-03T20:48:34.299Z,20.68
2023-09-03T20:51:01.192Z,20.63
2023-09-03T20:53:28.018Z,20.68
2023-09-03T20:55:55.614Z,20.67
2023-09-03T20:58:22.908Z,20.64
2023-09-03T21:00:54.724Z,20.58
2023-09-03T21:03:21.658Z,20.55
2023-09-03T21:05:48.957Z,20.52
2023-09-03T21:08:15.612Z,20.47
2023-09-03T21:10:42.185Z,20.38
2023-09-03T21:13:11.138Z,20.33
2023-09-03T21:15:40.960Z,20.36
2023-09-03T21:18:07.899Z,20.42
2023-09-03T21:20:34.604Z,20.40
2023-09-03T21:23:01.220Z,20.38
2023-09-03T21:25:28.025Z,20.37
2023-09-03T21:27:54.789Z,20.36
2023-09-03T21:30:21.401Z,20.33
2023-09-03T21:32:48.227Z,20.30
2023-09-03T21:35:24.051Z,20.26
2023-09-03T21:37:51.151Z,20.19
2023-09-03T21:40:20.265Z,20.12
2023-09-03T21:42:51.128Z,20.09
2023-09-03T21:45:20.254Z,20.03
2023-09-03T21:47:47.021Z,20.00
2023-09-03T21:50:13.772Z,19.94
2023-09-03T21:52:42.666Z,19.91
2023-09-03T21:55:09.682Z,19.81
2023-09-03T21:57:36.707Z,19.71
2023-09-03T22:00:07.622Z,19.57
2023-09-03T22:02:37.413Z,19.49
2023-09-03T22:05:06.212Z,19.48
2023-09-03T22:07:35.404Z,19.48
2023-09-03T22:10:02.679Z,19.49
2023-09-03T22:12:29.386Z,19.54
2023-09-03T22:14:56.518Z,19.55
2023-09-03T22:17:25.363Z,19.58
2023-09-03T22:19:52.545Z,19.63
2023-09-03T22:22:19.364Z,19.65
2023-09-03T22:24:46.062Z,19.66
2023-09-03T22:27:12.747Z,19.71
2023-09-03T22:29:39.487Z,19.75
2023-09-03T22:32:08.607Z,19.76
2023-09-03T22:34:38.163Z,19.78
2023-09-03T22:37:04.859Z,19.77
2023-09-03T22:39:33.523Z,19.80
2023-09-03T22:42:03.184Z,19.74
2023-09-03T22:44:29.886Z,19.78
2023-09-03T22:46:56.541Z,19.73
2023-09-03T22:49:25.257Z,19.66
2023-09-03T22:51:52.326Z,19.62
2023-09-03T22:54:19.771Z,19.62
2023-09-03T22:56:46.983Z,19.59
2023-09-03T22:59:15.983Z,19.51
2023-09-03T23:01:45.539Z,19.48
2023-09-03T23:04:12.278Z,19.41
2023-09-03T23:06:38.881Z,19.37
2023-09-03T23:09:05.552Z,19.40
2023-09-03T23:11:34.744Z,19.41
2023-09-03T23:14:01.461Z,19.33
2023-09-03T23:16:30.961Z,19.34
2023-09-03T23:18:57.682Z,19.39
2023-09-03T23:21:26.596Z,19.33
2023-09-03T23:23:55.350Z,19.33
2023-09-03T23:26:25.411Z,19.32
2023-09-03T23:28:54.685Z,19.28
2023-09-03T23:31:21.582Z,19.25
2023-09-03T23:33:48.934Z,19.20
2023-09-03T23:36:15.548Z,19.20
2023-09-03T23:38:44.951Z,19.19
2023-09-03T23:41:11.757Z,19.12
2023-09-03T23:43:38.480Z,19.07
2023-09-03T23:46:05.662Z,19.05
2023-09-03T23:48:32.414Z,19.11
2023-09-03T23:51:02.256Z,19.15
2023-09-03T23:53:29.582Z,19.18
2023-09-03T23:55:58.752Z,19.22
2023-09-03T23:58:32.659Z,19.24
